sensor_id;sensor_type;location;lat;lon;timestamp;temperature;humidity
24522;DHT22;12680;57.804;12.190;2023-08-21T00:01:35;17.60;99.90
24522;DHT22;12680;57.804;12.190;2023-08-21T00:04:09;17.60;99.90
24522;DHT22;12680;57.804;12.190;2023-08-21T00:06:43;17.60;99.90
24522;DHT22;12680;57.804;12.190;2023-08-21T00:09:10;17.60;99.90
24522;DHT22;12680;57.804;12.190;2023-08-21T00:11:36;17.60;99.90
24522;DHT22;12680;57.804;12.190;2023-08-21T00:14:10;17.60;99.90
24522;DHT22;12680;57.804;12.190;2023-08-21T00:16:37;17.70;99.90
24522;DHT22;12680;57.804;12.190;2023-08-21T00:19:11;17.70;99.90
24522;DHT22;12680;57.804;12.190;2023-08-21T00:21:38;17.90;99.90
24522;DHT22;12680;57.804;12.190;2023-08-21T00:24:12;17.80;99.90
24522;DHT22;12680;57.804;12.190;2023-08-21T00:26:39;17.70;99.90
24522;DHT22;12680;57.804;12.190;2023-08-21T00:29:06;17.70;99.90
24522;DHT22;12680;57.804;12.190;2023-08-21T00:31:39;17.70;99.90
24522;DHT22;12680;57.804;12.190;2023-08-21T00:34:06;17.70;99.90
24522;DHT22;12680;57.804;12.190;2023-08-21T00:36:39;17.70;99.90
24522;DHT22;12680;57.804;12.190;2023-08-21T00:39:06;17.70;99.90
24522;DHT22;12680;57.804;12.190;2023-08-21T00:41:33;17.70;99.90
24522;DHT22;12680;57.804;12.190;2023-08-21T00:44:07;17.70;99.90
24522;DHT22;12680;57.804;12.190;2023-08-21T00:46:34;17.60;99.90
24522;DHT22;12680;57.804;12.190;2023-08-21T00:49:09;17.60;99.90
24522;DHT22;12680;57.804;12.190;2023-08-21T00:51:36;17.60;99.90
24522;DHT22;12680;57.804;12.190;2023-08-21T00:54:03;17.50;99.90
24522;DHT22;12680;57.804;12.190;2023-08-21T00:56:36;17.50;99.90
24522;DHT22;12680;57.804;12.190;2023-08-21T00:59:03;17.40;99.90
24522;DHT22;12680;57.804;12.190;2023-08-21T01:01:37;17.30;99.90
24522;DHT22;12680;57.804;12.190;2023-08-21T01:04:04;17.30;99.90
24522;DHT22;12680;57.804;12.190;2023-08-21T01:17:18;16.90;99.90
24522;DHT22;12680;57.804;12.190;2023-08-21T01:19:53;16.90;99.90
24522;DHT22;12680;57.804;12.190;2023-08-21T01:22:20;17.40;99.90
24522;DHT22;12680;57.804;12.190;2023-08-21T01:24:56;16.70;99.90
24522;DHT22;12680;57.804;12.190;2023-08-21T01:27:23;16.60;99.90
24522;DHT22;12680;57.804;12.190;2023-08-21T01:29:56;16.60;99.90
24522;DHT22;12680;57.804;12.190;2023-08-21T01:35:13;16.60;99.90
24522;DHT22;12680;57.804;12.190;2023-08-21T01:37:47;16.60;99.90
24522;DHT22;12680;57.804;12.190;2023-08-21T01:40:23;16.50;99.90
24522;DHT22;12680;57.804;12.190;2023-08-21T01:42:50;16.50;99.90
24522;DHT22;12680;57.804;12.190;2023-08-21T01:45:19;16.40;99.90
24522;DHT22;12680;57.804;12.190;2023-08-21T01:47:52;16.30;99.90
24522;DHT22;12680;57.804;12.190;2023-08-21T01:50:19;16.30;99.90
24522;DHT22;12680;57.804;12.190;2023-08-21T01:52:52;16.20;99.90
24522;DHT22;12680;57.804;12.190;2023-08-21T01:55:29;16.20;99.90
24522;DHT22;12680;57.804;12.190;2023-08-21T01:58:02;16.20;99.90
24522;DHT22;12680;57.804;12.190;2023-08-21T02:00:29;16.10;99.90
24522;DHT22;12680;57.804;12.190;2023-08-21T02:02:56;16.10;99.90
24522;DHT22;12680;57.804;12.190;2023-08-21T02:05:29;16.10;99.90
24522;DHT22;12680;57.804;12.190;2023-08-21T02:08:02;16.00;99.90
24522;DHT22;12680;57.804;12.190;2023-08-21T02:10:36;16.00;99.90
24522;DHT22;12680;57.804;12.190;2023-08-21T02:13:03;16.00;99.90
24522;DHT22;12680;57.804;12.190;2023-08-21T02:15:31;15.90;99.90
24522;DHT22;12680;57.804;12.190;2023-08-21T02:18:04;15.90;99.90
24522;DHT22;12680;57.804;12.190;2023-08-21T02:20:31;15.80;99.90
24522;DHT22;12680;57.804;12.190;2023-08-21T02:23:04;15.80;99.90
24522;DHT22;12680;57.804;12.190;2023-08-21T02:25:38;15.70;99.90
24522;DHT22;12680;57.804;12.190;2023-08-21T02:28:11;15.70;99.90
24522;DHT22;12680;57.804;12.190;2023-08-21T02:30:42;15.70;99.90
24522;DHT22;12680;57.804;12.190;2023-08-21T02:33:09;15.60;99.90
24522;DHT22;12680;57.804;12.190;2023-08-21T02:35:42;15.60;99.90
24522;DHT22;12680;57.804;12.190;2023-08-21T02:38:09;15.60;99.90
24522;DHT22;12680;57.804;12.190;2023-08-21T02:40:43;15.60;99.90
24522;DHT22;12680;57.804;12.190;2023-08-21T02:43:10;15.60;99.90
24522;DHT22;12680;57.804;12.190;2023-08-21T02:45:37;15.60;99.90
24522;DHT22;12680;57.804;12.190;2023-08-21T02:48:10;15.60;99.90
24522;DHT22;12680;57.804;12.190;2023-08-21T02:50:37;15.60;99.90
24522;DHT22;12680;57.804;12.190;2023-08-21T02:53:04;15.70;99.90
24522;DHT22;12680;57.804;12.190;2023-08-21T02:55:37;15.70;99.90
24522;DHT22;12680;57.804;12.190;2023-08-21T02:58:04;15.70;99.90
24522;DHT22;12680;57.804;12.190;2023-08-21T03:00:37;15.70;99.90
24522;DHT22;12680;57.804;12.190;2023-08-21T03:03:04;15.80;99.90
24522;DHT22;12680;57.804;12.190;2023-08-21T03:05:44;15.80;99.90
24522;DHT22;12680;57.804;12.190;2023-08-21T03:08:11;15.90;99.90
24522;DHT22;12680;57.804;12.190;2023-08-21T03:10:38;16.00;99.90
24522;DHT22;12680;57.804;12.190;2023-08-21T03:13:11;16.00;99.90
24522;DHT22;12680;57.804;12.190;2023-08-21T03:15:45;16.10;99.90
24522;DHT22;12680;57.804;12.190;2023-08-21T03:18:18;16.10;99.90
24522;DHT22;12680;57.804;12.190;2023-08-21T03:20:46;16.10;99.90
24522;DHT22;12680;57.804;12.190;2023-08-21T03:23:19;16.20;99.90
24522;DHT22;12680;57.804;12.190;2023-08-21T03:25:46;16.20;99.90
24522;DHT22;12680;57.804;12.190;2023-08-21T03:28:13;16.20;99.90
24522;DHT22;12680;57.804;12.190;2023-08-21T03:30:46;16.20;99.90
24522;DHT22;12680;57.804;12.190;2023-08-21T03:33:13;16.30;99.90
24522;DHT22;12680;57.804;12.190;2023-08-21T03:35:46;16.30;99.90
24522;DHT22;12680;57.804;12.190;2023-08-21T03:38:13;16.30;99.90
24522;DHT22;12680;57.804;12.190;2023-08-21T03:40:40;16.30;99.90
24522;DHT22;12680;57.804;12.190;2023-08-21T03:43:13;16.30;99.90
24522;DHT22;12680;57.804;12.190;2023-08-21T03:45:40;16.30;99.90
24522;DHT22;12680;57.804;12.190;2023-08-21T03:48:13;16.30;99.90
24522;DHT22;12680;57.804;12.190;2023-08-21T03:50:41;16.40;99.90
24522;DHT22;12680;57.804;12.190;2023-08-21T03:53:07;16.40;99.90
24522;DHT22;12680;57.804;12.190;2023-08-21T03:55:40;16.30;99.90
24522;DHT22;12680;57.804;12.190;2023-08-21T03:58:07;16.40;99.90
24522;DHT22;12680;57.804;12.190;2023-08-21T04:00:40;16.40;99.90
24522;DHT22;12680;57.804;12.190;2023-08-21T04:03:14;16.30;99.90
24522;DHT22;12680;57.804;12.190;2023-08-21T04:05:55;16.30;99.90
24522;DHT22;12680;57.804;12.190;2023-08-21T04:08:23;15.50;99.90
24522;DHT22;12680;57.804;12.190;2023-08-21T04:11:05;16.30;99.90
24522;DHT22;12680;57.804;12.190;2023-08-21T04:13:38;16.40;99.90
24522;DHT22;12680;57.804;12.190;2023-08-21T04:16:05;16.40;99.90
24522;DHT22;12680;57.804;12.190;2023-08-21T04:18:45;19.10;99.90
24522;DHT22;12680;57.804;12.190;2023-08-21T04:21:12;16.40;99.90
24522;DHT22;12680;57.804;12.190;2023-08-21T04:23:45;17.00;99.90
24522;DHT22;12680;57.804;12.190;2023-08-21T04:26:12;17.80;99.90
24522;DHT22;12680;57.804;12.190;2023-08-21T04:28:46;16.40;99.90
24522;DHT22;12680;57.804;12.190;2023-08-21T04:31:13;18.00;99.90
24522;DHT22;12680;57.804;12.190;2023-08-21T04:33:40;16.40;99.90
24522;DHT22;12680;57.804;12.190;2023-08-21T04:36:17;17.60;99.90
24522;DHT22;12680;57.804;12.190;2023-08-21T04:38:43;19.10;99.90
24522;DHT22;12680;57.804;12.190;2023-08-21T04:41:17;16.40;99.90
24522;DHT22;12680;57.804;12.190;2023-08-21T04:43:44;16.50;99.90
24522;DHT22;12680;57.804;12.190;2023-08-21T04:46:14;19.20;99.90
24522;DHT22;12680;57.804;12.190;2023-08-21T04:48:47;16.50;99.90
24522;DHT22;12680;57.804;12.190;2023-08-21T04:51:14;16.50;99.90
24522;DHT22;12680;57.804;12.190;2023-08-21T04:53:41;16.50;99.90
24522;DHT22;12680;57.804;12.190;2023-08-21T04:56:14;16.50;99.90
24522;DHT22;12680;57.804;12.190;2023-08-21T04:58:41;17.80;99.90
24522;DHT22;12680;57.804;12.190;2023-08-21T05:01:08;17.00;99.90
24522;DHT22;12680;57.804;12.190;2023-08-21T05:03:48;16.50;99.90
24522;DHT22;12680;57.804;12.190;2023-08-21T05:06:15;16.50;99.90
24522;DHT22;12680;57.804;12.190;2023-08-21T05:08:48;16.50;99.90
24522;DHT22;12680;57.804;12.190;2023-08-21T05:11:15;16.60;99.90
24522;DHT22;12680;57.804;12.190;2023-08-21T05:13:42;16.90;99.90
24522;DHT22;12680;57.804;12.190;2023-08-21T05:16:15;16.60;99.90
24522;DHT22;12680;57.804;12.190;2023-08-21T05:18:42;16.60;99.90
24522;DHT22;12680;57.804;12.190;2023-08-21T05:21:09;16.60;99.90
24522;DHT22;12680;57.804;12.190;2023-08-21T05:23:42;18.20;99.90
24522;DHT22;12680;57.804;12.190;2023-08-21T05:26:09;16.70;99.90
24522;DHT22;12680;57.804;12.190;2023-08-21T05:28:36;16.50;99.90
24522;DHT22;12680;57.804;12.190;2023-08-21T05:31:09;16.60;99.90
24522;DHT22;12680;57.804;12.190;2023-08-21T05:33:36;16.50;99.90
24522;DHT22;12680;57.804;12.190;2023-08-21T05:36:03;16.50;99.90
24522;DHT22;12680;57.804;12.190;2023-08-21T05:38:37;16.50;99.90
24522;DHT22;12680;57.804;12.190;2023-08-21T05:41:04;17.60;99.90
24522;DHT22;12680;57.804;12.190;2023-08-21T05:43:31;16.50;99.90
24522;DHT22;12680;57.804;12.190;2023-08-21T05:46:05;16.60;99.90
24522;DHT22;12680;57.804;12.190;2023-08-21T05:48:33;16.60;99.90
24522;DHT22;12680;57.804;12.190;2023-08-21T05:51:00;16.60;99.90
24522;DHT22;12680;57.804;12.190;2023-08-21T05:53:33;16.70;99.90
24522;DHT22;12680;57.804;12.190;2023-08-21T05:56:00;16.80;99.90
24522;DHT22;12680;57.804;12.190;2023-08-21T05:58:27;17.10;99.90
24522;DHT22;12680;57.804;12.190;2023-08-21T06:01:06;16.90;99.90
24522;DHT22;12680;57.804;12.190;2023-08-21T06:03:33;17.50;99.90
24522;DHT22;12680;57.804;12.190;2023-08-21T06:06:20;16.90;99.90
24522;DHT22;12680;57.804;12.190;2023-08-21T06:08:47;17.00;99.90
24522;DHT22;12680;57.804;12.190;2023-08-21T06:11:21;17.10;99.90
24522;DHT22;12680;57.804;12.190;2023-08-21T06:13:48;17.10;99.90
24522;DHT22;12680;57.804;12.190;2023-08-21T06:16:15;17.10;99.90
24522;DHT22;12680;57.804;12.190;2023-08-21T06:18:49;17.20;99.90
24522;DHT22;12680;57.804;12.190;2023-08-21T07:46:30;17.90;99.90
24522;DHT22;12680;57.804;12.190;2023-08-21T07:49:03;18.00;99.90
24522;DHT22;12680;57.804;12.190;2023-08-21T07:51:30;18.20;99.90
24522;DHT22;12680;57.804;12.190;2023-08-21T07:53:57;18.30;99.90
24522;DHT22;12680;57.804;12.190;2023-08-21T07:56:31;18.40;99.90
24522;DHT22;12680;57.804;12.190;2023-08-21T07:58:57;18.60;99.90
24522;DHT22;12680;57.804;12.190;2023-08-21T08:01:24;19.70;99.90
24522;DHT22;12680;57.804;12.190;2023-08-21T08:03:58;18.50;99.90
24522;DHT22;12680;57.804;12.190;2023-08-21T08:06:31;18.50;99.90
24522;DHT22;12680;57.804;12.190;2023-08-21T08:09:04;18.50;99.90
24522;DHT22;12680;57.804;12.190;2023-08-21T08:11:31;18.60;99.90
24522;DHT22;12680;57.804;12.190;2023-08-21T08:13:58;18.40;99.90
24522;DHT22;12680;57.804;12.190;2023-08-21T08:16:32;18.40;99.90
24522;DHT22;12680;57.804;12.190;2023-08-21T08:18:58;18.50;99.90
24522;DHT22;12680;57.804;12.190;2023-08-21T08:21:25;18.60;99.90
24522;DHT22;12680;57.804;12.190;2023-08-21T08:23:58;18.60;99.90
24522;DHT22;12680;57.804;12.190;2023-08-21T08:26:25;18.70;99.90
24522;DHT22;12680;57.804;12.190;2023-08-21T08:28:52;19.00;99.90
24522;DHT22;12680;57.804;12.190;2023-08-21T08:31:26;18.80;99.90
24522;DHT22;12680;57.804;12.190;2023-08-21T08:33:54;18.90;99.90
24522;DHT22;12680;57.804;12.190;2023-08-21T08:36:21;19.10;99.90
24522;DHT22;12680;57.804;12.190;2023-08-21T08:38:55;19.20;99.90
24522;DHT22;12680;57.804;12.190;2023-08-21T08:41:34;19.20;99.90
24522;DHT22;12680;57.804;12.190;2023-08-21T08:44:13;19.40;99.90
24522;DHT22;12680;57.804;12.190;2023-08-21T08:46:41;19.30;99.90
24522;DHT22;12680;57.804;12.190;2023-08-21T08:49:09;19.40;99.90
24522;DHT22;12680;57.804;12.190;2023-08-21T08:51:43;19.40;99.90
24522;DHT22;12680;57.804;12.190;2023-08-21T08:54:10;19.10;99.90
24522;DHT22;12680;57.804;12.190;2023-08-21T08:56:38;19.10;99.90
24522;DHT22;12680;57.804;12.190;2023-08-21T08:59:15;19.10;99.90
24522;DHT22;12680;57.804;12.190;2023-08-21T09:01:42;19.10;99.90
24522;DHT22;12680;57.804;12.190;2023-08-21T09:04:22;19.10;99.90
24522;DHT22;12680;57.804;12.190;2023-08-21T09:07:10;19.10;99.90
24522;DHT22;12680;57.804;12.190;2023-08-21T09:09:48;19.40;99.90
24522;DHT22;12680;57.804;12.190;2023-08-21T09:12:17;19.30;99.90
24522;DHT22;12680;57.804;12.190;2023-08-21T09:14:50;19.30;99.90
24522;DHT22;12680;57.804;12.190;2023-08-21T09:17:17;19.20;99.90
24522;DHT22;12680;57.804;12.190;2023-08-21T09:19:44;19.30;99.90
24522;DHT22;12680;57.804;12.190;2023-08-21T09:22:18;19.30;99.90
24522;DHT22;12680;57.804;12.190;2023-08-21T09:27:39;19.30;99.90
24522;DHT22;12680;57.804;12.190;2023-08-21T09:30:11;19.20;99.90
24522;DHT22;12680;57.804;12.190;2023-08-21T09:32:58;19.20;99.90
24522;DHT22;12680;57.804;12.190;2023-08-21T09:35:27;19.10;99.90
24522;DHT22;12680;57.804;12.190;2023-08-21T09:38:01;19.10;99.90
24522;DHT22;12680;57.804;12.190;2023-08-21T09:40:28;19.00;99.90
24522;DHT22;12680;57.804;12.190;2023-08-21T09:42:58;19.00;99.90
24522;DHT22;12680;57.804;12.190;2023-08-21T09:45:33;20.10;99.90
24522;DHT22;12680;57.804;12.190;2023-08-21T09:48:04;19.30;99.90
24522;DHT22;12680;57.804;12.190;2023-08-21T09:50:39;19.40;99.90
24522;DHT22;12680;57.804;12.190;2023-08-21T09:53:07;19.50;99.90
24522;DHT22;12680;57.804;12.190;2023-08-21T09:55:35;19.60;99.90
24522;DHT22;12680;57.804;12.190;2023-08-21T09:58:09;19.90;99.90
24522;DHT22;12680;57.804;12.190;2023-08-21T10:00:37;20.00;99.90
24522;DHT22;12680;57.804;12.190;2023-08-21T10:03:07;20.00;99.90
24522;DHT22;12680;57.804;12.190;2023-08-21T10:05:47;20.00;99.90
24522;DHT22;12680;57.804;12.190;2023-08-21T10:08:16;20.00;99.90
24522;DHT22;12680;57.804;12.190;2023-08-21T10:10:51;20.00;99.90
24522;DHT22;12680;57.804;12.190;2023-08-21T10:13:18;20.20;99.90
24522;DHT22;12680;57.804;12.190;2023-08-21T10:15:45;20.10;99.90
24522;DHT22;12680;57.804;12.190;2023-08-21T10:18:22;20.10;99.90
24522;DHT22;12680;57.804;12.190;2023-08-21T10:20:53;20.30;99.90
24522;DHT22;12680;57.804;12.190;2023-08-21T10:23:28;20.50;99.90
24522;DHT22;12680;57.804;12.190;2023-08-21T10:26:01;20.60;99.90
24522;DHT22;12680;57.804;12.190;2023-08-21T10:28:55;20.70;99.90
24522;DHT22;12680;57.804;12.190;2023-08-21T10:34:03;21.20;99.90
24522;DHT22;12680;57.804;12.190;2023-08-21T10:39:22;20.60;99.90
24522;DHT22;12680;57.804;12.190;2023-08-21T10:42:10;20.60;99.90
24522;DHT22;12680;57.804;12.190;2023-08-21T10:44:52;20.70;99.90
24522;DHT22;12680;57.804;12.190;2023-08-21T10:50:05;20.60;99.90
24522;DHT22;12680;57.804;12.190;2023-08-21T10:52:37;20.60;99.90
24522;DHT22;12680;57.804;12.190;2023-08-21T10:55:12;20.80;99.90
24522;DHT22;12680;57.804;12.190;2023-08-21T10:57:39;21.00;99.90
24522;DHT22;12680;57.804;12.190;2023-08-21T11:00:11;21.10;99.90
24522;DHT22;12680;57.804;12.190;2023-08-21T11:02:46;21.20;99.90
24522;DHT22;12680;57.804;12.190;2023-08-21T11:05:15;21.20;99.90
24522;DHT22;12680;57.804;12.190;2023-08-21T11:07:55;21.20;99.90
24522;DHT22;12680;57.804;12.190;2023-08-21T11:10:23;21.20;99.90
24522;DHT22;12680;57.804;12.190;2023-08-21T11:12:55;21.30;99.90
24522;DHT22;12680;57.804;12.190;2023-08-21T11:15:29;21.30;99.90
24522;DHT22;12680;57.804;12.190;2023-08-21T11:18:01;21.20;99.90
24522;DHT22;12680;57.804;12.190;2023-08-21T11:20:36;21.20;99.90
24522;DHT22;12680;57.804;12.190;2023-08-21T11:23:05;21.20;99.90
24522;DHT22;12680;57.804;12.190;2023-08-21T11:25:34;21.40;99.90
24522;DHT22;12680;57.804;12.190;2023-08-21T11:28:08;21.40;99.90
24522;DHT22;12680;57.804;12.190;2023-08-21T11:30:35;21.40;99.90
24522;DHT22;12680;57.804;12.190;2023-08-21T11:33:07;21.40;99.90
24522;DHT22;12680;57.804;12.190;2023-08-21T11:35:41;21.20;99.70
24522;DHT22;12680;57.804;12.190;2023-08-21T11:38:18;20.20;99.80
24522;DHT22;12680;57.804;12.190;2023-08-21T11:40:57;21.00;99.80
24522;DHT22;12680;57.804;12.190;2023-08-21T11:43:37;20.90;99.90
24522;DHT22;12680;57.804;12.190;2023-08-21T11:46:11;20.90;99.90
24522;DHT22;12680;57.804;12.190;2023-08-21T11:48:39;21.00;99.90
24522;DHT22;12680;57.804;12.190;2023-08-21T11:51:07;21.00;99.90
24522;DHT22;12680;57.804;12.190;2023-08-21T11:53:42;20.90;99.90
24522;DHT22;12680;57.804;12.190;2023-08-21T11:56:13;20.90;99.90
24522;DHT22;12680;57.804;12.190;2023-08-21T11:58:50;20.90;99.90
24522;DHT22;12680;57.804;12.190;2023-08-21T12:01:18;21.10;99.90
24522;DHT22;12680;57.804;12.190;2023-08-21T12:03:46;21.20;99.90
24522;DHT22;12680;57.804;12.190;2023-08-21T12:06:25;21.30;99.90
24522;DHT22;12680;57.804;12.190;2023-08-21T12:08:53;21.30;99.90
24522;DHT22;12680;57.804;12.190;2023-08-21T15:24:55;21.30;98.90
24522;DHT22;12680;57.804;12.190;2023-08-21T15:27:25;21.20;99.30
24522;DHT22;12680;57.804;12.190;2023-08-21T15:29:55;21.10;99.50
24522;DHT22;12680;57.804;12.190;2023-08-21T15:32:29;21.00;99.50
24522;DHT22;12680;57.804;12.190;2023-08-21T15:34:56;20.80;99.60
24522;DHT22;12680;57.804;12.190;2023-08-21T15:37:26;20.80;99.90
24522;DHT22;12680;57.804;12.190;2023-08-21T15:40:00;20.80;99.90
24522;DHT22;12680;57.804;12.190;2023-08-21T15:42:30;20.90;99.90
24522;DHT22;12680;57.804;12.190;2023-08-21T15:45:08;20.90;99.90
24522;DHT22;12680;57.804;12.190;2023-08-21T15:47:35;21.00;99.90
24522;DHT22;12680;57.804;12.190;2023-08-21T15:50:17;21.00;99.70
24522;DHT22;12680;57.804;12.190;2023-08-21T15:52:57;21.10;99.40
24522;DHT22;12680;57.804;12.190;2023-08-21T15:55:24;19.10;98.60
24522;DHT22;12680;57.804;12.190;2023-08-21T15:58:00;21.20;98.80
24522;DHT22;12680;57.804;12.190;2023-08-21T16:00:30;21.20;98.30
24522;DHT22;12680;57.804;12.190;2023-08-21T16:03:01;21.10;98.30
24522;DHT22;12680;57.804;12.190;2023-08-21T16:05:40;21.10;98.40
24522;DHT22;12680;57.804;12.190;2023-08-21T16:08:14;21.10;98.30
24522;DHT22;12680;57.804;12.190;2023-08-21T16:10:49;21.10;98.50
24522;DHT22;12680;57.804;12.190;2023-08-21T16:13:16;21.10;98.70
24522;DHT22;12680;57.804;12.190;2023-08-21T16:15:48;21.20;98.60
24522;DHT22;12680;57.804;12.190;2023-08-21T16:18:24;21.20;98.70
24522;DHT22;12680;57.804;12.190;2023-08-21T16:20:55;21.20;98.30
24522;DHT22;12680;57.804;12.190;2023-08-21T16:23:34;21.10;98.10
24522;DHT22;12680;57.804;12.190;2023-08-21T16:26:05;21.10;98.30
24522;DHT22;12680;57.804;12.190;2023-08-21T16:28:43;21.10;98.30
24522;DHT22;12680;57.804;12.190;2023-08-21T16:31:18;21.00;98.00
24522;DHT22;12680;57.804;12.190;2023-08-21T16:33:52;20.90;98.00
24522;DHT22;12680;57.804;12.190;2023-08-21T16:36:29;20.80;98.00
24522;DHT22;12680;57.804;12.190;2023-08-21T16:39:03;20.80;98.20
24522;DHT22;12680;57.804;12.190;2023-08-21T16:41:38;20.90;98.10
24522;DHT22;12680;57.804;12.190;2023-08-21T16:44:14;20.80;98.20
24522;DHT22;12680;57.804;12.190;2023-08-21T16:46:44;20.70;97.90
24522;DHT22;12680;57.804;12.190;2023-08-21T16:49:14;20.60;98.10
24522;DHT22;12680;57.804;12.190;2023-08-21T16:51:47;20.50;98.30
24522;DHT22;12680;57.804;12.190;2023-08-21T16:54:14;20.50;98.30
24522;DHT22;12680;57.804;12.190;2023-08-21T16:56:48;20.40;98.30
24522;DHT22;12680;57.804;12.190;2023-08-21T16:59:15;20.40;98.50
24522;DHT22;12680;57.804;12.190;2023-08-21T17:01:48;20.40;98.50
24522;DHT22;12680;57.804;12.190;2023-08-21T17:04:29;20.40;98.60
24522;DHT22;12680;57.804;12.190;2023-08-21T17:07:09;20.40;98.80
24522;DHT22;12680;57.804;12.190;2023-08-21T17:09:46;20.50;98.80
24522;DHT22;12680;57.804;12.190;2023-08-21T17:12:16;20.70;98.40
24522;DHT22;12680;57.804;12.190;2023-08-21T17:14:50;20.70;98.50
24522;DHT22;12680;57.804;12.190;2023-08-21T17:17:17;20.80;98.40
24522;DHT22;12680;57.804;12.190;2023-08-21T17:19:44;20.90;98.20
24522;DHT22;12680;57.804;12.190;2023-08-21T17:22:17;21.00;98.00
24522;DHT22;12680;57.804;12.190;2023-08-21T17:24:44;21.10;97.90
24522;DHT22;12680;57.804;12.190;2023-08-21T17:27:11;21.20;97.80
24522;DHT22;12680;57.804;12.190;2023-08-21T17:29:45;21.30;97.50
24522;DHT22;12680;57.804;12.190;2023-08-21T17:32:17;21.30;97.60
24522;DHT22;12680;57.804;12.190;2023-08-21T17:34:50;21.30;97.60
24522;DHT22;12680;57.804;12.190;2023-08-21T17:37:17;21.40;97.50
24522;DHT22;12680;57.804;12.190;2023-08-21T17:39:47;21.40;97.80
24522;DHT22;12680;57.804;12.190;2023-08-21T17:42:21;21.40;97.80
24522;DHT22;12680;57.804;12.190;2023-08-21T17:44:48;21.40;97.60
24522;DHT22;12680;57.804;12.190;2023-08-21T17:47:21;21.30;97.50
24522;DHT22;12680;57.804;12.190;2023-08-21T17:49:48;21.20;97.30
24522;DHT22;12680;57.804;12.190;2023-08-21T17:52:15;21.10;97.50
24522;DHT22;12680;57.804;12.190;2023-08-21T17:54:49;21.00;97.60
24522;DHT22;12680;57.804;12.190;2023-08-21T17:57:16;20.90;97.40
24522;DHT22;12680;57.804;12.190;2023-08-21T17:59:53;20.80;97.30
24522;DHT22;12680;57.804;12.190;2023-08-21T18:02:20;20.80;97.50
24522;DHT22;12680;57.804;12.190;2023-08-21T18:04:50;20.70;97.40
24522;DHT22;12680;57.804;12.190;2023-08-21T18:07:34;20.70;97.50
24522;DHT22;12680;57.804;12.190;2023-08-21T18:10:01;20.50;97.60
24522;DHT22;12680;57.804;12.190;2023-08-21T18:12:38;20.50;97.60
24522;DHT22;12680;57.804;12.190;2023-08-21T18:15:05;20.40;97.60
24522;DHT22;12680;57.804;12.190;2023-08-21T18:17:32;20.20;97.60
24522;DHT22;12680;57.804;12.190;2023-08-21T18:20:07;20.00;97.70
24522;DHT22;12680;57.804;12.190;2023-08-21T18:22:37;19.70;98.00
24522;DHT22;12680;57.804;12.190;2023-08-21T18:25:14;19.40;98.30
24522;DHT22;12680;57.804;12.190;2023-08-21T18:27:41;19.20;98.60
24522;DHT22;12680;57.804;12.190;2023-08-21T19:20:26;16.90;99.90
24522;DHT22;12680;57.804;12.190;2023-08-21T19:22:53;19.10;99.90
24522;DHT22;12680;57.804;12.190;2023-08-21T19:25:26;16.80;99.90
24522;DHT22;12680;57.804;12.190;2023-08-21T19:27:55;16.70;99.90
24522;DHT22;12680;57.804;12.190;2023-08-21T19:30:23;16.60;99.90
24522;DHT22;12680;57.804;12.190;2023-08-21T19:32:57;16.60;99.90
24522;DHT22;12680;57.804;12.190;2023-08-21T19:35:24;16.60;99.90
24522;DHT22;12680;57.804;12.190;2023-08-21T19:37:51;16.50;99.90
24522;DHT22;12680;57.804;12.190;2023-08-21T19:40:24;16.40;99.90
24522;DHT22;12680;57.804;12.190;2023-08-21T19:42:51;16.40;99.90
24522;DHT22;12680;57.804;12.190;2023-08-21T19:45:17;16.60;99.90
24522;DHT22;12680;57.804;12.190;2023-08-21T19:47:52;16.40;99.90
24522;DHT22;12680;57.804;12.190;2023-08-21T19:50:19;16.30;99.90
24522;DHT22;12680;57.804;12.190;2023-08-21T19:52:52;16.30;99.90
24522;DHT22;12680;57.804;12.190;2023-08-21T19:55:20;16.30;99.90
24522;DHT22;12680;57.804;12.190;2023-08-21T19:57:48;18.40;99.90
24522;DHT22;12680;57.804;12.190;2023-08-21T20:00:21;18.70;99.90
24522;DHT22;12680;57.804;12.190;2023-08-21T20:02:48;17.00;99.90
24522;DHT22;12680;57.804;12.190;2023-08-21T20:05:22;16.20;99.90
24522;DHT22;12680;57.804;12.190;2023-08-21T20:08:02;16.10;99.90
24522;DHT22;12680;57.804;12.190;2023-08-21T20:10:38;16.10;99.90
24522;DHT22;12680;57.804;12.190;2023-08-21T20:13:13;16.10;99.90
24522;DHT22;12680;57.804;12.190;2023-08-21T20:15:46;17.40;99.90
24522;DHT22;12680;57.804;12.190;2023-08-21T20:18:13;16.10;99.90
24522;DHT22;12680;57.804;12.190;2023-08-21T20:20:49;16.10;99.90
24522;DHT22;12680;57.804;12.190;2023-08-21T20:23:23;16.50;99.90
24522;DHT22;12680;57.804;12.190;2023-08-21T20:25:50;17.60;99.90
24522;DHT22;12680;57.804;12.190;2023-08-21T20:28:17;18.60;99.90
24522;DHT22;12680;57.804;12.190;2023-08-21T20:30:51;16.30;99.90
24522;DHT22;12680;57.804;12.190;2023-08-21T20:33:18;15.90;99.90
24522;DHT22;12680;57.804;12.190;2023-08-21T20:35:45;18.20;99.90
24522;DHT22;12680;57.804;12.190;2023-08-21T20:38:18;18.50;99.90
24522;DHT22;12680;57.804;12.190;2023-08-21T20:40:45;15.80;99.90
24522;DHT22;12680;57.804;12.190;2023-08-21T20:43:12;16.80;99.90
24522;DHT22;12680;57.804;12.190;2023-08-21T20:45:45;15.70;99.90
24522;DHT22;12680;57.804;12.190;2023-08-21T20:48:12;15.70;99.90
24522;DHT22;12680;57.804;12.190;2023-08-21T20:50:39;15.70;99.90
24522;DHT22;12680;57.804;12.190;2023-08-21T20:53:12;15.70;99.90
24522;DHT22;12680;57.804;12.190;2023-08-21T20:55:39;15.70;99.90
24522;DHT22;12680;57.804;12.190;2023-08-21T20:58:12;16.90;99.90
24522;DHT22;12680;57.804;12.190;2023-08-21T21:00:43;15.60;99.90
24522;DHT22;12680;57.804;12.190;2023-08-21T21:03:10;15.60;99.90
24522;DHT22;12680;57.804;12.190;2023-08-21T21:05:43;15.60;99.90
24522;DHT22;12680;57.804;12.190;2023-08-21T21:08:16;15.50;99.90
24522;DHT22;12680;57.804;12.190;2023-08-21T21:10:50;15.50;99.90
24522;DHT22;12680;57.804;12.190;2023-08-21T21:13:17;15.50;99.90
24522;DHT22;12680;57.804;12.190;2023-08-21T21:15:43;15.50;99.90
24522;DHT22;12680;57.804;12.190;2023-08-21T21:18:17;15.50;99.90
24522;DHT22;12680;57.804;12.190;2023-08-21T21:20:44;16.70;99.90
24522;DHT22;12680;57.804;12.190;2023-08-21T21:23:11;18.20;99.90
24522;DHT22;12680;57.804;12.190;2023-08-21T21:25:44;15.40;99.90
24522;DHT22;12680;57.804;12.190;2023-08-21T21:28:17;15.40;99.90
24522;DHT22;12680;57.804;12.190;2023-08-21T21:30:44;15.70;99.90
24522;DHT22;12680;57.804;12.190;2023-08-21T21:33:17;15.40;99.90